sensor_id;sensor_type;location;lat;lon;timestamp;P1;durP1;ratioP1;P2;durP2;ratioP2
20480;SDS011;10399;50.754;3.366;2023-04-24T00:01:57;23.73;;;11.65;;
20480;SDS011;10399;50.754;3.366;2023-04-24T00:04:24;20.98;;;11.27;;
20480;SDS011;10399;50.754;3.366;2023-04-24T00:06:52;23.45;;;11.65;;
20480;SDS011;10399;50.754;3.366;2023-04-24T00:09:23;25.42;;;11.10;;
20480;SDS011;10399;50.754;3.366;2023-04-24T00:11:50;19.30;;;10.50;;
20480;SDS011;10399;50.754;3.366;2023-04-24T00:14:18;21.50;;;9.90;;
20480;SDS011;10399;50.754;3.366;2023-04-24T00:16:44;15.73;;;10.25;;
20480;SDS011;10399;50.754;3.366;2023-04-24T00:19:11;13.93;;;9.32;;
20480;SDS011;10399;50.754;3.366;2023-04-24T00:21:39;19.83;;;9.93;;
20480;SDS011;10399;50.754;3.366;2023-04-24T00:24:07;19.08;;;10.50;;
20480;SDS011;10399;50.754;3.366;2023-04-24T00:26:35;18.33;;;10.50;;
20480;SDS011;10399;50.754;3.366;2023-04-24T00:29:02;25.55;;;11.30;;
20480;SDS011;10399;50.754;3.366;2023-04-24T00:31:29;20.58;;;11.13;;
20480;SDS011;10399;50.754;3.366;2023-04-24T00:33:56;21.15;;;10.85;;
20480;SDS011;10399;50.754;3.366;2023-04-24T00:36:24;25.80;;;12.88;;
20480;SDS011;10399;50.754;3.366;2023-04-24T00:38:51;26.10;;;12.43;;
20480;SDS011;10399;50.754;3.366;2023-04-24T00:41:18;28.90;;;13.48;;
20480;SDS011;10399;50.754;3.366;2023-04-24T00:43:45;29.55;;;13.07;;
20480;SDS011;10399;50.754;3.366;2023-04-24T00:46:12;28.05;;;13.02;;
20480;SDS011;10399;50.754;3.366;2023-04-24T00:48:40;27.25;;;12.55;;
20480;SDS011;10399;50.754;3.366;2023-04-24T00:51:07;28.52;;;14.85;;
20480;SDS011;10399;50.754;3.366;2023-04-24T00:53:34;29.63;;;13.98;;
20480;SDS011;10399;50.754;3.366;2023-04-24T00:56:01;24.85;;;13.80;;
20480;SDS011;10399;50.754;3.366;2023-04-24T00:58:29;37.97;;;14.85;;
20480;SDS011;10399;50.754;3.366;2023-04-24T01:00:57;30.05;;;14.00;;
20480;SDS011;10399;50.754;3.366;2023-04-24T01:03:29;31.35;;;14.60;;
20480;SDS011;10399;50.754;3.366;2023-04-24T01:05:58;29.92;;;13.75;;
20480;SDS011;10399;50.754;3.366;2023-04-24T01:08:26;27.75;;;12.93;;
20480;SDS011;10399;50.754;3.366;2023-04-24T01:10:54;30.38;;;14.02;;
20480;SDS011;10399;50.754;3.366;2023-04-24T01:13:23;31.52;;;13.65;;
20480;SDS011;10399;50.754;3.366;2023-04-24T01:15:50;26.00;;;12.75;;
20480;SDS011;10399;50.754;3.366;2023-04-24T01:18:17;30.20;;;13.57;;
20480;SDS011;10399;50.754;3.366;2023-04-24T01:20:44;29.05;;;12.15;;
20480;SDS011;10399;50.754;3.366;2023-04-24T01:23:13;25.00;;;13.25;;
20480;SDS011;10399;50.754;3.366;2023-04-24T01:25:40;22.50;;;11.80;;
20480;SDS011;10399;50.754;3.366;2023-04-24T01:28:07;23.02;;;12.00;;
20480;SDS011;10399;50.754;3.366;2023-04-24T01:30:34;25.90;;;11.25;;
20480;SDS011;10399;50.754;3.366;2023-04-24T01:33:01;24.35;;;11.75;;
20480;SDS011;10399;50.754;3.366;2023-04-24T01:35:29;24.92;;;10.90;;
20480;SDS011;10399;50.754;3.366;2023-04-24T01:37:55;22.70;;;11.43;;
20480;SDS011;10399;50.754;3.366;2023-04-24T01:40:22;23.65;;;10.95;;
20480;SDS011;10399;50.754;3.366;2023-04-24T01:42:49;20.95;;;10.90;;
20480;SDS011;10399;50.754;3.366;2023-04-24T01:45:17;22.80;;;11.05;;
20480;SDS011;10399;50.754;3.366;2023-04-24T01:47:44;16.92;;;10.55;;
20480;SDS011;10399;50.754;3.366;2023-04-24T01:50:12;25.08;;;12.15;;
20480;SDS011;10399;50.754;3.366;2023-04-24T01:52:40;22.90;;;12.38;;
20480;SDS011;10399;50.754;3.366;2023-04-24T01:55:06;20.95;;;12.07;;
20480;SDS011;10399;50.754;3.366;2023-04-24T01:57:34;22.77;;;12.05;;
20480;SDS011;10399;50.754;3.366;2023-04-24T02:00:01;23.33;;;12.90;;
20480;SDS011;10399;50.754;3.366;2023-04-24T02:02:30;23.70;;;12.13;;
20480;SDS011;10399;50.754;3.366;2023-04-24T02:04:58;20.55;;;11.95;;
20480;SDS011;10399;50.754;3.366;2023-04-24T02:07:25;28.75;;;13.45;;
20480;SDS011;10399;50.754;3.366;2023-04-24T02:09:52;22.15;;;13.50;;
20480;SDS011;10399;50.754;3.366;2023-04-24T02:12:19;24.00;;;13.52;;
20480;SDS011;10399;50.754;3.366;2023-04-24T02:14:45;21.42;;;13.02;;
20480;SDS011;10399;50.754;3.366;2023-04-24T02:17:13;25.20;;;13.57;;
20480;SDS011;10399;50.754;3.366;2023-04-24T02:19:41;24.90;;;14.30;;
20480;SDS011;10399;50.754;3.366;2023-04-24T02:22:09;23.83;;;13.68;;
20480;SDS011;10399;50.754;3.366;2023-04-24T02:24:37;22.20;;;13.57;;
20480;SDS011;10399;50.754;3.366;2023-04-24T02:27:04;26.00;;;14.95;;
20480;SDS011;10399;50.754;3.366;2023-04-24T02:29:32;23.58;;;16.02;;
20480;SDS011;10399;50.754;3.366;2023-04-24T02:31:58;27.70;;;17.55;;
20480;SDS011;10399;50.754;3.366;2023-04-24T02:34:25;30.10;;;18.02;;
20480;SDS011;10399;50.754;3.366;2023-04-24T02:36:52;31.48;;;17.38;;
20480;SDS011;10399;50.754;3.366;2023-04-24T02:39:20;28.95;;;19.27;;
20480;SDS011;10399;50.754;3.366;2023-04-24T02:41:47;28.23;;;18.20;;
20480;SDS011;10399;50.754;3.366;2023-04-24T02:44:14;34.63;;;18.95;;
20480;SDS011;10399;50.754;3.366;2023-04-24T02:46:43;30.58;;;16.13;;
20480;SDS011;10399;50.754;3.366;2023-04-24T02:49:10;28.73;;;17.20;;
20480;SDS011;10399;50.754;3.366;2023-04-24T02:51:38;29.88;;;17.73;;
20480;SDS011;10399;50.754;3.366;2023-04-24T02:54:07;30.45;;;17.42;;
20480;SDS011;10399;50.754;3.366;2023-04-24T02:56:36;29.70;;;16.95;;
20480;SDS011;10399;50.754;3.366;2023-04-24T02:59:03;28.33;;;18.65;;
20480;SDS011;10399;50.754;3.366;2023-04-24T03:01:30;32.03;;;17.33;;
20480;SDS011;10399;50.754;3.366;2023-04-24T03:03:57;29.25;;;16.48;;
20480;SDS011;10399;50.754;3.366;2023-04-24T03:06:24;29.35;;;17.85;;
20480;SDS011;10399;50.754;3.366;2023-04-24T03:08:53;26.52;;;16.58;;
20480;SDS011;10399;50.754;3.366;2023-04-24T03:11:20;30.55;;;18.08;;
20480;SDS011;10399;50.754;3.366;2023-04-24T03:13:47;28.85;;;17.90;;
20480;SDS011;10399;50.754;3.366;2023-04-24T03:16:15;28.10;;;16.88;;
20480;SDS011;10399;50.754;3.366;2023-04-24T03:18:42;30.33;;;17.42;;
20480;SDS011;10399;50.754;3.366;2023-04-24T03:21:09;29.02;;;17.30;;
20480;SDS011;10399;50.754;3.366;2023-04-24T03:23:36;28.77;;;16.58;;
20480;SDS011;10399;50.754;3.366;2023-04-24T03:26:02;29.85;;;16.52;;
20480;SDS011;10399;50.754;3.366;2023-04-24T03:28:29;26.98;;;15.60;;
20480;SDS011;10399;50.754;3.366;2023-04-24T03:30:56;24.90;;;14.85;;
20480;SDS011;10399;50.754;3.366;2023-04-24T03:33:23;27.52;;;15.95;;
20480;SDS011;10399;50.754;3.366;2023-04-24T03:35:51;23.33;;;15.85;;
20480;SDS011;10399;50.754;3.366;2023-04-24T03:38:17;28.95;;;16.77;;
20480;SDS011;10399;50.754;3.366;2023-04-24T03:40:44;34.00;;;17.60;;
20480;SDS011;10399;50.754;3.366;2023-04-24T03:43:11;32.83;;;16.80;;
20480;SDS011;10399;50.754;3.366;2023-04-24T03:45:38;34.58;;;18.42;;
20480;SDS011;10399;50.754;3.366;2023-04-24T03:48:05;35.35;;;18.10;;
20480;SDS011;10399;50.754;3.366;2023-04-24T03:50:32;39.53;;;19.13;;
20480;SDS011;10399;50.754;3.366;2023-04-24T03:52:59;32.40;;;17.92;;
20480;SDS011;10399;50.754;3.366;2023-04-24T03:55:25;31.50;;;17.42;;
20480;SDS011;10399;50.754;3.366;2023-04-24T03:57:52;37.20;;;17.48;;
20480;SDS011;10399;50.754;3.366;2023-04-24T04:00:19;32.50;;;16.77;;
20480;SDS011;10399;50.754;3.366;2023-04-24T04:02:47;35.10;;;18.05;;
20480;SDS011;10399;50.754;3.366;2023-04-24T04:05:14;34.95;;;17.98;;
20480;SDS011;10399;50.754;3.366;2023-04-24T04:07:41;37.95;;;17.40;;
20480;SDS011;10399;50.754;3.366;2023-04-24T04:10:08;37.85;;;18.77;;
20480;SDS011;10399;50.754;3.366;2023-04-24T04:12:36;43.53;;;20.02;;
20480;SDS011;10399;50.754;3.366;2023-04-24T04:15:03;38.53;;;19.25;;
20480;SDS011;10399;50.754;3.366;2023-04-24T04:17:32;40.10;;;17.60;;
20480;SDS011;10399;50.754;3.366;2023-04-24T04:19:59;40.58;;;20.08;;
20480;SDS011;10399;50.754;3.366;2023-04-24T04:22:26;35.22;;;19.52;;
20480;SDS011;10399;50.754;3.366;2023-04-24T04:24:53;41.40;;;19.88;;
20480;SDS011;10399;50.754;3.366;2023-04-24T04:27:20;44.70;;;20.48;;
20480;SDS011;10399;50.754;3.366;2023-04-24T04:29:47;39.30;;;17.63;;
20480;SDS011;10399;50.754;3.366;2023-04-24T04:32:15;40.67;;;19.00;;
20480;SDS011;10399;50.754;3.366;2023-04-24T04:34:42;34.60;;;18.10;;
20480;SDS011;10399;50.754;3.366;2023-04-24T04:37:11;37.78;;;19.83;;
20480;SDS011;10399;50.754;3.366;2023-04-24T04:39:39;37.30;;;18.92;;
20480;SDS011;10399;50.754;3.366;2023-04-24T04:42:06;39.58;;;20.63;;
20480;SDS011;10399;50.754;3.366;2023-04-24T04:44:33;38.67;;;19.67;;
20480;SDS011;10399;50.754;3.366;2023-04-24T04:47:02;41.28;;;20.95;;
20480;SDS011;10399;50.754;3.366;2023-04-24T04:49:32;43.30;;;20.08;;
20480;SDS011;10399;50.754;3.366;2023-04-24T04:51:59;37.58;;;20.10;;
20480;SDS011;10399;50.754;3.366;2023-04-24T04:54:26;40.92;;;20.58;;
20480;SDS011;10399;50.754;3.366;2023-04-24T04:56:53;39.33;;;20.63;;
20480;SDS011;10399;50.754;3.366;2023-04-24T04:59:20;48.65;;;22.65;;
20480;SDS011;10399;50.754;3.366;2023-04-24T05:01:47;51.03;;;20.98;;
20480;SDS011;10399;50.754;3.366;2023-04-24T05:04:14;49.75;;;21.05;;
20480;SDS011;10399;50.754;3.366;2023-04-24T05:06:41;40.42;;;20.88;;
20480;SDS011;10399;50.754;3.366;2023-04-24T05:09:08;42.13;;;19.25;;
20480;SDS011;10399;50.754;3.366;2023-04-24T05:11:35;39.50;;;19.20;;
20480;SDS011;10399;50.754;3.366;2023-04-24T05:14:02;42.45;;;21.58;;
20480;SDS011;10399;50.754;3.366;2023-04-24T05:16:29;39.22;;;18.92;;
20480;SDS011;10399;50.754;3.366;2023-04-24T05:18:57;41.60;;;19.38;;
20480;SDS011;10399;50.754;3.366;2023-04-24T05:21:24;36.50;;;18.50;;
20480;SDS011;10399;50.754;3.366;2023-04-24T05:23:51;39.28;;;17.65;;
20480;SDS011;10399;50.754;3.366;2023-04-24T05:26:18;38.15;;;18.63;;
20480;SDS011;10399;50.754;3.366;2023-04-24T05:28:45;36.58;;;17.27;;
20480;SDS011;10399;50.754;3.366;2023-04-24T05:31:12;33.00;;;18.85;;
20480;SDS011;10399;50.754;3.366;2023-04-24T05:33:40;33.33;;;17.70;;
20480;SDS011;10399;50.754;3.366;2023-04-24T05:36:07;39.78;;;16.63;;
20480;SDS011;10399;50.754;3.366;2023-04-24T05:38:34;32.85;;;18.15;;
20480;SDS011;10399;50.754;3.366;2023-04-24T05:41:01;34.78;;;18.35;;
20480;SDS011;10399;50.754;3.366;2023-04-24T05:43:28;34.00;;;17.25;;
20480;SDS011;10399;50.754;3.366;2023-04-24T05:45:54;34.53;;;17.40;;
20480;SDS011;10399;50.754;3.366;2023-04-24T05:48:21;39.25;;;18.80;;
20480;SDS011;10399;50.754;3.366;2023-04-24T05:50:49;37.08;;;18.70;;
20480;SDS011;10399;50.754;3.366;2023-04-24T05:53:17;45.10;;;19.70;;
20480;SDS011;10399;50.754;3.366;2023-04-24T05:55:44;43.00;;;19.80;;
20480;SDS011;10399;50.754;3.366;2023-04-24T05:58:11;33.25;;;18.38;;
20480;SDS011;10399;50.754;3.366;2023-04-24T06:00:38;42.33;;;20.10;;
20480;SDS011;10399;50.754;3.366;2023-04-24T06:03:08;34.33;;;18.77;;
20480;SDS011;10399;50.754;3.366;2023-04-24T06:05:36;33.00;;;18.65;;
20480;SDS011;10399;50.754;3.366;2023-04-24T06:08:03;36.58;;;18.80;;
20480;SDS011;10399;50.754;3.366;2023-04-24T06:10:30;38.35;;;19.23;;
20480;SDS011;10399;50.754;3.366;2023-04-24T06:12:57;42.28;;;19.58;;
20480;SDS011;10399;50.754;3.366;2023-04-24T06:15:30;35.22;;;19.80;;
20480;SDS011;10399;50.754;3.366;2023-04-24T06:17:57;38.50;;;19.52;;
20480;SDS011;10399;50.754;3.366;2023-04-24T06:20:25;37.00;;;19.58;;
20480;SDS011;10399;50.754;3.366;2023-04-24T06:22:53;45.58;;;19.90;;
20480;SDS011;10399;50.754;3.366;2023-04-24T06:25:20;46.30;;;20.83;;
20480;SDS011;10399;50.754;3.366;2023-04-24T06:27:47;35.83;;;20.73;;
20480;SDS011;10399;50.754;3.366;2023-04-24T06:30:15;43.00;;;21.30;;
20480;SDS011;10399;50.754;3.366;2023-04-24T06:32:41;39.17;;;20.38;;
20480;SDS011;10399;50.754;3.366;2023-04-24T06:35:08;46.80;;;20.52;;
20480;SDS011;10399;50.754;3.366;2023-04-24T06:37:36;37.72;;;18.98;;
20480;SDS011;10399;50.754;3.366;2023-04-24T06:40:03;32.50;;;18.45;;
20480;SDS011;10399;50.754;3.366;2023-04-24T06:42:33;38.75;;;17.98;;
20480;SDS011;10399;50.754;3.366;2023-04-24T06:45:01;50.08;;;19.15;;
20480;SDS011;10399;50.754;3.366;2023-04-24T06:47:28;35.65;;;17.65;;
20480;SDS011;10399;50.754;3.366;2023-04-24T06:49:56;37.05;;;19.73;;
20480;SDS011;10399;50.754;3.366;2023-04-24T06:52:23;37.63;;;18.08;;
20480;SDS011;10399;50.754;3.366;2023-04-24T06:54:50;33.95;;;17.63;;
20480;SDS011;10399;50.754;3.366;2023-04-24T06:57:17;31.65;;;17.42;;
20480;SDS011;10399;50.754;3.366;2023-04-24T06:59:44;29.30;;;16.20;;
20480;SDS011;10399;50.754;3.366;2023-04-24T07:02:13;34.92;;;16.65;;
20480;SDS011;10399;50.754;3.366;2023-04-24T07:04:40;25.75;;;15.75;;
20480;SDS011;10399;50.754;3.366;2023-04-24T07:07:08;34.53;;;16.45;;
20480;SDS011;10399;50.754;3.366;2023-04-24T07:09:39;32.35;;;15.70;;
20480;SDS011;10399;50.754;3.366;2023-04-24T07:12:10;30.08;;;14.55;;
20480;SDS011;10399;50.754;3.366;2023-04-24T07:14:38;26.17;;;14.35;;
20480;SDS011;10399;50.754;3.366;2023-04-24T07:17:05;29.77;;;14.48;;
20480;SDS011;10399;50.754;3.366;2023-04-24T07:19:33;31.73;;;14.80;;
20480;SDS011;10399;50.754;3.366;2023-04-24T07:22:04;33.92;;;16.73;;
20480;SDS011;10399;50.754;3.366;2023-04-24T07:24:31;33.63;;;16.25;;
20480;SDS011;10399;50.754;3.366;2023-04-24T07:27:00;28.13;;;16.02;;
20480;SDS011;10399;50.754;3.366;2023-04-24T07:29:27;30.23;;;15.30;;
20480;SDS011;10399;50.754;3.366;2023-04-24T07:31:54;30.30;;;15.50;;
20480;SDS011;10399;50.754;3.366;2023-04-24T07:34:22;30.02;;;15.27;;
20480;SDS011;10399;50.754;3.366;2023-04-24T07:36:49;31.00;;;15.80;;
20480;SDS011;10399;50.754;3.366;2023-04-24T07:39:17;30.83;;;14.95;;
20480;SDS011;10399;50.754;3.366;2023-04-24T07:41:44;25.83;;;15.50;;
20480;SDS011;10399;50.754;3.366;2023-04-24T07:44:11;34.20;;;15.05;;
20480;SDS011;10399;50.754;3.366;2023-04-24T07:46:38;26.23;;;14.82;;
20480;SDS011;10399;50.754;3.366;2023-04-24T07:49:06;34.78;;;14.95;;
20480;SDS011;10399;50.754;3.366;2023-04-24T07:51:39;31.73;;;14.82;;
20480;SDS011;10399;50.754;3.366;2023-04-24T07:54:08;28.63;;;14.45;;
20480;SDS011;10399;50.754;3.366;2023-04-24T07:56:35;25.33;;;14.00;;
20480;SDS011;10399;50.754;3.366;2023-04-24T07:59:05;26.33;;;13.13;;
20480;SDS011;10399;50.754;3.366;2023-04-24T08:01:32;23.90;;;14.70;;
20480;SDS011;10399;50.754;3.366;2023-04-24T08:04:00;29.45;;;12.98;;
20480;SDS011;10399;50.754;3.366;2023-04-24T08:06:28;25.13;;;14.52;;
20480;SDS011;10399;50.754;3.366;2023-04-24T08:08:57;26.77;;;13.55;;
20480;SDS011;10399;50.754;3.366;2023-04-24T08:11:24;28.85;;;14.35;;
20480;SDS011;10399;50.754;3.366;2023-04-24T08:13:52;21.85;;;13.05;;
20480;SDS011;10399;50.754;3.366;2023-04-24T08:16:21;32.42;;;13.98;;
20480;SDS011;10399;50.754;3.366;2023-04-24T08:18:50;22.50;;;12.93;;
20480;SDS011;10399;50.754;3.366;2023-04-24T08:21:18;19.80;;;11.60;;
20480;SDS011;10399;50.754;3.366;2023-04-24T08:23:45;28.35;;;12.93;;
20480;SDS011;10399;50.754;3.366;2023-04-24T08:26:12;25.92;;;11.55;;
20480;SDS011;10399;50.754;3.366;2023-04-24T08:28:40;23.77;;;11.68;;
20480;SDS011;10399;50.754;3.366;2023-04-24T08:31:07;22.38;;;11.48;;
20480;SDS011;10399;50.754;3.366;2023-04-24T08:33:34;24.63;;;10.55;;
20480;SDS011;10399;50.754;3.366;2023-04-24T08:36:04;26.58;;;10.38;;
20480;SDS011;10399;50.754;3.366;2023-04-24T08:38:32;18.52;;;8.40;;
20480;SDS011;10399;50.754;3.366;2023-04-24T08:41:00;22.90;;;9.13;;
20480;SDS011;10399;50.754;3.366;2023-04-24T08:43:28;17.65;;;9.07;;
20480;SDS011;10399;50.754;3.366;2023-04-24T08:45:55;18.35;;;9.60;;
20480;SDS011;10399;50.754;3.366;2023-04-24T08:48:23;26.75;;;9.85;;
20480;SDS011;10399;50.754;3.366;2023-04-24T08:50:57;20.20;;;9.07;;
20480;SDS011;10399;50.754;3.366;2023-04-24T08:53:25;18.65;;;8.30;;
20480;SDS011;10399;50.754;3.366;2023-04-24T08:55:53;16.48;;;8.75;;
20480;SDS011;10399;50.754;3.366;2023-04-24T08:58:25;18.23;;;9.30;;
20480;SDS011;10399;50.754;3.366;2023-04-24T09:00:56;19.38;;;9.80;;
20480;SDS011;10399;50.754;3.366;2023-04-24T09:03:24;18.60;;;10.80;;
20480;SDS011;10399;50.754;3.366;2023-04-24T09:05:54;25.45;;;11.85;;
20480;SDS011;10399;50.754;3.366;2023-04-24T09:08:23;62.30;;;15.55;;
20480;SDS011;10399;50.754;3.366;2023-04-24T09:10:52;162.20;;;24.08;;
20480;SDS011;10399;50.754;3.366;2023-04-24T09:13:19;22.00;;;12.68;;
20480;SDS011;10399;50.754;3.366;2023-04-24T09:15:46;22.70;;;12.40;;
20480;SDS011;10399;50.754;3.366;2023-04-24T09:18:13;29.83;;;13.27;;
20480;SDS011;10399;50.754;3.366;2023-04-24T09:21:00;22.55;;;12.98;;
20480;SDS011;10399;50.754;3.366;2023-04-24T09:23:29;19.52;;;12.20;;
20480;SDS011;10399;50.754;3.366;2023-04-24T09:25:58;20.63;;;12.63;;
20480;SDS011;10399;50.754;3.366;2023-04-24T09:31:08;23.15;;;12.40;;
20480;SDS011;10399;50.754;3.366;2023-04-24T09:36:28;22.48;;;10.65;;
20480;SDS011;10399;50.754;3.366;2023-04-24T09:39:00;17.00;;;10.55;;
20480;SDS011;10399;50.754;3.366;2023-04-24T09:41:28;22.38;;;11.68;;
20480;SDS011;10399;50.754;3.366;2023-04-24T09:43:55;20.63;;;12.73;;
20480;SDS011;10399;50.754;3.366;2023-04-24T09:46:29;23.73;;;12.63;;
20480;SDS011;10399;50.754;3.366;2023-04-24T09:49:12;21.75;;;13.10;;
20480;SDS011;10399;50.754;3.366;2023-04-24T09:51:42;22.08;;;13.70;;
20480;SDS011;10399;50.754;3.366;2023-04-24T09:54:13;22.67;;;12.45;;
20480;SDS011;10399;50.754;3.366;2023-04-24T09:56:44;24.65;;;13.02;;
20480;SDS011;10399;50.754;3.366;2023-04-24T09:59:16;19.95;;;12.57;;
20480;SDS011;10399;50.754;3.366;2023-04-24T10:01:45;19.85;;;11.93;;
20480;SDS011;10399;50.754;3.366;2023-04-24T10:06:51;16.92;;;11.35;;
20480;SDS011;10399;50.754;3.366;2023-04-24T10:09:23;17.38;;;11.70;;
20480;SDS011;10399;50.754;3.366;2023-04-24T10:11:53;20.10;;;10.95;;
20480;SDS011;10399;50.754;3.366;2023-04-24T10:14:24;16.42;;;11.15;;
20480;SDS011;10399;50.754;3.366;2023-04-24T10:16:54;16.65;;;11.20;;
20480;SDS011;10399;50.754;3.366;2023-04-24T10:19:25;18.50;;;10.88;;
20480;SDS011;10399;50.754;3.366;2023-04-24T10:21:52;19.25;;;11.77;;
20480;SDS011;10399;50.754;3.366;2023-04-24T10:24:21;16.60;;;11.02;;
20480;SDS011;10399;50.754;3.366;2023-04-24T10:26:48;21.88;;;11.38;;
20480;SDS011;10399;50.754;3.366;2023-04-24T10:29:19;19.90;;;11.20;;
20480;SDS011;10399;50.754;3.366;2023-04-24T10:31:47;17.83;;;9.57;;
20480;SDS011;10399;50.754;3.366;2023-04-24T10:34:15;18.63;;;10.98;;
20480;SDS011;10399;50.754;3.366;2023-04-24T10:36:46;16.15;;;11.25;;
20480;SDS011;10399;50.754;3.366;2023-04-24T10:39:16;17.20;;;10.43;;
20480;SDS011;10399;50.754;3.366;2023-04-24T10:41:53;16.52;;;11.02;;
20480;SDS011;10399;50.754;3.366;2023-04-24T10:44:24;22.00;;;11.80;;
20480;SDS011;10399;50.754;3.366;2023-04-24T10:46:55;15.50;;;10.23;;
20480;SDS011;10399;50.754;3.366;2023-04-24T10:49:29;16.38;;;10.82;;
20480;SDS011;10399;50.754;3.366;2023-04-24T10:52:02;19.15;;;9.10;;
20480;SDS011;10399;50.754;3.366;2023-04-24T10:54:35;20.85;;;10.90;;
20480;SDS011;10399;50.754;3.366;2023-04-24T10:59:48;16.58;;;10.75;;
20480;SDS011;10399;50.754;3.366;2023-04-24T11:02:17;18.10;;;10.73;;
20480;SDS011;10399;50.754;3.366;2023-04-24T11:04:45;22.08;;;10.75;;
20480;SDS011;10399;50.754;3.366;2023-04-24T11:07:12;16.42;;;10.43;;
20480;SDS011;10399;50.754;3.366;2023-04-24T11:09:39;21.95;;;11.15;;
20480;SDS011;10399;50.754;3.366;2023-04-24T11:12:10;17.90;;;11.27;;
20480;SDS011;10399;50.754;3.366;2023-04-24T11:17:30;21.15;;;10.93;;
20480;SDS011;10399;50.754;3.366;2023-04-24T11:20:15;19.63;;;10.93;;
20480;SDS011;10399;50.754;3.366;2023-04-24T11:22:53;18.58;;;10.70;;
20480;SDS011;10399;50.754;3.366;2023-04-24T11:25:22;18.75;;;11.20;;
20480;SDS011;10399;50.754;3.366;2023-04-24T11:27:49;17.38;;;11.02;;
20480;SDS011;10399;50.754;3.366;2023-04-24T11:30:17;21.90;;;11.70;;
20480;SDS011;10399;50.754;3.366;2023-04-24T11:32:52;17.77;;;10.70;;
20480;SDS011;10399;50.754;3.366;2023-04-24T11:35:22;16.02;;;10.70;;
20480;SDS011;10399;50.754;3.366;2023-04-24T11:37:55;16.77;;;9.85;;
20480;SDS011;10399;50.754;3.366;2023-04-24T11:40:25;15.32;;;9.77;;
20480;SDS011;10399;50.754;3.366;2023-04-24T11:42:52;21.63;;;11.02;;
20480;SDS011;10399;50.754;3.366;2023-04-24T11:45:26;19.60;;;10.52;;
20480;SDS011;10399;50.754;3.366;2023-04-24T11:47:54;18.85;;;10.55;;
20480;SDS011;10399;50.754;3.366;2023-04-24T11:50:22;15.15;;;10.40;;
20480;SDS011;10399;50.754;3.366;2023-04-24T11:52:52;18.63;;;10.15;;
20480;SDS011;10399;50.754;3.366;2023-04-24T11:57:48;14.77;;;10.88;;
20480;SDS011;10399;50.754;3.366;2023-04-24T12:00:17;16.35;;;9.95;;
20480;SDS011;10399;50.754;3.366;2023-04-24T12:02:46;13.52;;;9.55;;
20480;SDS011;10399;50.754;3.366;2023-04-24T12:05:24;12.95;;;9.50;;
20480;SDS011;10399;50.754;3.366;2023-04-24T12:07:53;15.68;;;9.60;;
20480;SDS011;10399;50.754;3.366;2023-04-24T12:10:21;14.40;;;9.32;;
20480;SDS011;10399;50.754;3.366;2023-04-24T12:12:53;20.25;;;9.73;;
20480;SDS011;10399;50.754;3.366;2023-04-24T12:15:21;12.73;;;9.43;;
20480;SDS011;10399;50.754;3.366;2023-04-24T12:17:52;17.40;;;9.00;;
20480;SDS011;10399;50.754;3.366;2023-04-24T12:20:24;16.35;;;9.35;;
20480;SDS011;10399;50.754;3.366;2023-04-24T12:22:54;15.45;;;8.77;;
20480;SDS011;10399;50.754;3.366;2023-04-24T12:25:25;14.55;;;7.53;;
20480;SDS011;10399;50.754;3.366;2023-04-24T12:27:54;13.63;;;7.75;;
20480;SDS011;10399;50.754;3.366;2023-04-24T12:30:46;18.13;;;8.55;;
20480;SDS011;10399;50.754;3.366;2023-04-24T12:33:21;13.45;;;7.47;;
20480;SDS011;10399;50.754;3.366;2023-04-24T12:35:48;13.77;;;7.68;;
20480;SDS011;10399;50.754;3.366;2023-04-24T12:38:23;13.13;;;6.97;;
20480;SDS011;10399;50.754;3.366;2023-04-24T12:41:04;12.68;;;7.60;;
20480;SDS011;10399;50.754;3.366;2023-04-24T12:43:36;18.08;;;7.50;;
20480;SDS011;10399;50.754;3.366;2023-04-24T12:46:04;11.32;;;7.53;;
20480;SDS011;10399;50.754;3.366;2023-04-24T12:48:31;11.70;;;7.93;;
20480;SDS011;10399;50.754;3.366;2023-04-24T12:50:58;12.25;;;8.18;;
20480;SDS011;10399;50.754;3.366;2023-04-24T12:53:28;11.55;;;7.65;;
20480;SDS011;10399;50.754;3.366;2023-04-24T12:55:57;12.20;;;7.55;;
20480;SDS011;10399;50.754;3.366;2023-04-24T12:58:24;12.18;;;8.68;;
20480;SDS011;10399;50.754;3.366;2023-04-24T13:00:51;11.63;;;7.57;;
20480;SDS011;10399;50.754;3.366;2023-04-24T13:03:19;8.95;;;6.70;;
20480;SDS011;10399;50.754;3.366;2023-04-24T13:05:47;11.80;;;7.13;;
20480;SDS011;10399;50.754;3.366;2023-04-24T13:08:14;10.02;;;7.20;;
20480;SDS011;10399;50.754;3.366;2023-04-24T13:10:41;11.20;;;6.45;;
20480;SDS011;10399;50.754;3.366;2023-04-24T13:13:09;12.65;;;7.13;;
20480;SDS011;10399;50.754;3.366;2023-04-24T13:15:36;11.38;;;6.20;;
20480;SDS011;10399;50.754;3.366;2023-04-24T13:18:03;10.18;;;6.00;;
20480;SDS011;10399;50.754;3.366;2023-04-24T13:20:30;11.18;;;6.28;;
20480;SDS011;10399;50.754;3.366;2023-04-24T13:22:58;11.35;;;5.97;;
20480;SDS011;10399;50.754;3.366;2023-04-24T13:25:24;13.98;;;5.03;;
20480;SDS011;10399;50.754;3.366;2023-04-24T13:27:52;10.32;;;5.70;;
20480;SDS011;10399;50.754;3.366;2023-04-24T13:30:19;13.23;;;5.53;;
20480;SDS011;10399;50.754;3.366;2023-04-24T13:32:46;8.40;;;5.72;;
20480;SDS011;10399;50.754;3.366;2023-04-24T13:35:13;9.95;;;5.57;;
20480;SDS011;10399;50.754;3.366;2023-04-24T13:37:41;12.35;;;6.30;;
20480;SDS011;10399;50.754;3.366;2023-04-24T13:40:08;10.20;;;6.32;;
20480;SDS011;10399;50.754;3.366;2023-04-24T13:42:36;11.45;;;6.55;;
20480;SDS011;10399;50.754;3.366;2023-04-24T13:45:03;13.45;;;7.43;;
20480;SDS011;10399;50.754;3.366;2023-04-24T13:47:50;11.38;;;6.43;;
20480;SDS011;10399;50.754;3.366;2023-04-24T13:50:18;11.60;;;6.68;;
20480;SDS011;10399;50.754;3.366;2023-04-24T13:52:45;9.68;;;6.18;;
20480;SDS011;10399;50.754;3.366;2023-04-24T13:55:12;12.27;;;6.80;;
20480;SDS011;10399;50.754;3.366;2023-04-24T13:57:39;10.35;;;6.60;;
20480;SDS011;10399;50.754;3.366;2023-04-24T14:00:06;12.13;;;7.25;;
20480;SDS011;10399;50.754;3.366;2023-04-24T14:02:36;17.15;;;6.75;;
20480;SDS011;10399;50.754;3.366;2023-04-24T14:05:04;17.52;;;7.18;;
20480;SDS011;10399;50.754;3.366;2023-04-24T14:07:32;14.48;;;6.80;;
20480;SDS011;10399;50.754;3.366;2023-04-24T14:09:59;12.88;;;5.85;;
20480;SDS011;10399;50.754;3.366;2023-04-24T14:12:26;10.38;;;6.53;;
20480;SDS011;10399;50.754;3.366;2023-04-24T14:14:54;8.70;;;5.85;;
20480;SDS011;10399;50.754;3.366;2023-04-24T14:17:21;10.95;;;5.57;;
20480;SDS011;10399;50.754;3.366;2023-04-24T14:19:48;9.63;;;5.43;;
20480;SDS011;10399;50.754;3.366;2023-04-24T14:22:16;9.20;;;4.32;;
20480;SDS011;10399;50.754;3.366;2023-04-24T14:24:43;10.85;;;4.45;;
20480;SDS011;10399;50.754;3.366;2023-04-24T14:27:10;9.73;;;5.03;;
20480;SDS011;10399;50.754;3.366;2023-04-24T14:29:37;9.52;;;4.80;;
20480;SDS011;10399;50.754;3.366;2023-04-24T14:32:04;7.47;;;3.90;;
20480;SDS011;10399;50.754;3.366;2023-04-24T14:34:31;8.43;;;4.15;;
20480;SDS011;10399;50.754;3.366;2023-04-24T14:36:58;6.57;;;3.65;;
20480;SDS011;10399;50.754;3.366;2023-04-24T14:39:25;7.28;;;3.85;;
20480;SDS011;10399;50.754;3.366;2023-04-24T14:41:52;7.13;;;3.60;;
20480;SDS011;10399;50.754;3.366;2023-04-24T14:44:19;6.85;;;3.55;;
20480;SDS011;10399;50.754;3.366;2023-04-24T14:46:46;11.55;;;4.25;;
20480;SDS011;10399;50.754;3.366;2023-04-24T14:49:14;8.20;;;4.25;;